createdAt,value
2019-01-29T00:02:08.040Z,2.92
2019-01-29T00:04:34.237Z,2.95
2019-01-29T00:07:00.414Z,2.85
2019-01-29T00:09:26.741Z,2.71
2019-01-29T00:11:52.988Z,2.37
2019-01-29T00:14:19.297Z,2.81
2019-01-29T00:16:45.520Z,3.25
2019-01-29T00:19:11.813Z,3.03
2019-01-29T00:21:37.991Z,2.88
2019-01-29T00:24:04.205Z,2.61
2019-01-29T00:26:30.490Z,2.89
2019-01-29T00:28:56.674Z,2.78
2019-01-29T00:31:23.032Z,2.75
2019-01-29T00:33:49.206Z,2.54
2019-01-29T00:36:15.379Z,2.35
2019-01-29T00:38:41.977Z,2.10
2019-01-29T00:41:08.156Z,2.19
2019-01-29T00:43:34.348Z,2.23
2019-01-29T00:46:00.563Z,2.34
2019-01-29T00:48:26.851Z,2.03
2019-01-29T00:50:53.057Z,1.73
2019-01-29T00:53:19.292Z,2.36
2019-01-29T00:55:45.573Z,2.31
2019-01-29T00:58:11.867Z,1.73
2019-01-29T01:00:38.074Z,2.18
2019-01-29T01:03:04.252Z,2.94
2019-01-29T01:05:30.821Z,3.21
2019-01-29T01:07:57.051Z,2.92
2019-01-29T01:10:23.224Z,3.18
2019-01-29T01:12:49.404Z,3.61
2019-01-29T01:15:16.106Z,3.49
2019-01-29T01:17:42.364Z,2.96
2019-01-29T01:20:12.029Z,2.30
2019-01-29T01:22:38.231Z,2.52
2019-01-29T01:25:06.388Z,2.65
2019-01-29T01:27:32.540Z,2.77
2019-01-29T01:29:58.723Z,2.70
2019-01-29T01:32:24.888Z,2.87
2019-01-29T01:34:51.049Z,2.64
2019-01-29T01:37:17.230Z,2.06
2019-01-29T01:39:43.384Z,2.72
2019-01-29T01:42:09.543Z,2.78
2019-01-29T01:44:35.753Z,2.92
2019-01-29T01:47:01.911Z,2.93
2019-01-29T01:49:28.170Z,3.20
2019-01-29T01:51:54.363Z,3.03
2019-01-29T01:54:20.512Z,3.48
2019-01-29T01:56:46.771Z,3.64
2019-01-29T01:59:12.978Z,3.95
2019-01-29T02:01:39.232Z,3.46
2019-01-29T02:04:05.406Z,3.17
2019-01-29T02:06:31.603Z,3.43
2019-01-29T02:08:57.757Z,3.24
2019-01-29T02:11:23.922Z,3.47
2019-01-29T02:13:50.106Z,3.80
2019-01-29T02:16:16.404Z,4.02
2019-01-29T02:18:42.580Z,4.26
2019-01-29T02:21:08.760Z,4.04
2019-01-29T02:23:35.017Z,3.58
2019-01-29T02:26:01.173Z,3.92
2019-01-29T02:28:27.389Z,4.12
2019-01-29T02:30:53.552Z,4.06
2019-01-29T02:33:19.711Z,4.10
2019-01-29T02:35:45.896Z,4.30
2019-01-29T02:38:12.069Z,4.36
2019-01-29T02:40:38.235Z,4.32
2019-01-29T02:43:04.540Z,4.49
2019-01-29T02:45:30.711Z,4.60
2019-01-29T02:47:56.878Z,4.51
2019-01-29T02:50:23.171Z,4.52
2019-01-29T02:52:49.433Z,4.55
2019-01-29T02:55:15.600Z,4.41
2019-01-29T02:57:41.788Z,4.42
2019-01-29T03:00:11.652Z,4.44
2019-01-29T03:02:37.816Z,4.56
2019-01-29T03:05:06.820Z,4.52
2019-01-29T03:07:33.080Z,4.67
2019-01-29T03:09:59.345Z,4.70
2019-01-29T03:12:25.540Z,4.78
2019-01-29T03:14:51.698Z,4.86
2019-01-29T03:17:17.910Z,4.72
2019-01-29T03:19:44.092Z,4.52
2019-01-29T03:22:10.261Z,4.26
2019-01-29T03:24:36.410Z,3.98
2019-01-29T03:27:02.593Z,3.89
2019-01-29T03:29:28.758Z,3.80
2019-01-29T03:31:54.919Z,3.99
2019-01-29T03:34:21.119Z,3.12
2019-01-29T03:36:47.284Z,2.61
2019-01-29T03:39:13.448Z,3.37
2019-01-29T03:41:39.646Z,3.50
2019-01-29T03:44:05.790Z,3.21
2019-01-29T03:46:32.048Z,3.63
2019-01-29T03:48:58.237Z,3.28
2019-01-29T03:51:24.390Z,3.43
2019-01-29T03:53:50.714Z,3.51
2019-01-29T03:56:16.946Z,3.25
2019-01-29T03:58:43.103Z,2.76
2019-01-29T04:01:09.267Z,2.72
2019-01-29T04:03:35.577Z,3.24
2019-01-29T04:06:02.205Z,2.51
2019-01-29T04:08:28.464Z,2.85
2019-01-29T04:10:54.649Z,3.28
2019-01-29T04:13:20.810Z,2.54
2019-01-29T04:15:47.063Z,2.43
2019-01-29T04:18:13.420Z,2.30
2019-01-29T04:20:39.681Z,2.92
2019-01-29T04:23:05.846Z,3.36
2019-01-29T04:25:32.028Z,3.51
2019-01-29T04:27:58.293Z,3.69
2019-01-29T04:30:24.448Z,3.46
2019-01-29T04:32:50.748Z,3.52
2019-01-29T04:35:17.008Z,3.51
2019-01-29T04:37:43.270Z,3.27
2019-01-29T04:40:12.067Z,2.83
2019-01-29T04:42:38.226Z,3.34
2019-01-29T04:45:07.503Z,3.55
2019-01-29T04:47:33.727Z,3.64
2019-01-29T04:49:59.862Z,3.29
2019-01-29T04:52:26.026Z,3.04
2019-01-29T04:54:52.327Z,2.86
2019-01-29T04:57:18.600Z,3.28
2019-01-29T04:59:44.775Z,3.67
2019-01-29T05:02:10.943Z,3.70
2019-01-29T05:04:37.211Z,3.80
2019-01-29T05:07:03.370Z,2.53
2019-01-29T05:09:29.560Z,2.61
2019-01-29T05:11:55.707Z,2.77
2019-01-29T05:14:21.874Z,2.84
2019-01-29T05:16:48.068Z,3.34
2019-01-29T05:19:14.287Z,3.46
2019-01-29T05:21:40.446Z,3.56
2019-01-29T05:24:07.346Z,3.35
2019-01-29T05:26:33.698Z,2.95
2019-01-29T05:28:59.856Z,2.48
2019-01-29T05:31:26.040Z,2.78
2019-01-29T05:33:52.199Z,2.98
2019-01-29T05:36:19.838Z,3.33
2019-01-29T05:38:46.143Z,3.58
2019-01-29T05:41:12.313Z,3.63
2019-01-29T05:43:38.576Z,3.43
2019-01-29T05:46:04.775Z,3.47
2019-01-29T05:48:30.937Z,3.60
2019-01-29T05:50:57.204Z,3.53
2019-01-29T05:53:23.404Z,3.71
2019-01-29T05:55:49.561Z,3.62
2019-01-29T05:58:15.722Z,3.37
2019-01-29T06:00:42.012Z,3.81
2019-01-29T06:03:08.274Z,2.86
2019-01-29T06:05:34.539Z,3.10
2019-01-29T06:08:00.739Z,3.50
2019-01-29T06:10:26.903Z,3.69
2019-01-29T06:12:53.171Z,3.32
2019-01-29T06:15:20.956Z,3.49
2019-01-29T06:17:47.122Z,3.61
2019-01-29T06:20:19.050Z,3.28
2019-01-29T06:22:45.348Z,3.18
2019-01-29T06:25:11.608Z,3.08
2019-01-29T06:27:37.869Z,3.44
2019-01-29T06:30:07.664Z,3.77
2019-01-29T06:32:33.829Z,3.87
2019-01-29T06:34:59.998Z,4.42
2019-01-29T06:37:26.345Z,4.77
2019-01-29T06:39:52.606Z,4.76
2019-01-29T06:42:18.775Z,4.72
2019-01-29T06:44:44.955Z,4.49
2019-01-29T06:47:11.122Z,4.51
2019-01-29T06:49:37.390Z,4.86
2019-01-29T06:52:03.888Z,4.61
2019-01-29T06:54:34.217Z,4.23
2019-01-29T06:56:58.323Z,4.00
2019-01-29T06:59:24.527Z,4.58
2019-01-29T07:01:50.681Z,4.99
2019-01-29T07:04:16.958Z,5.14
2019-01-29T07:06:43.578Z,5.37
2019-01-29T07:09:09.846Z,5.66
2019-01-29T07:11:36.007Z,5.97
2019-01-29T07:14:02.209Z,5.67
2019-01-29T07:16:30.271Z,5.52
2019-01-29T07:18:58.336Z,5.53
2019-01-29T07:21:25.438Z,5.44
2019-01-29T07:23:51.711Z,5.23
2019-01-29T07:26:17.969Z,5.40
2019-01-29T07:28:44.298Z,5.44
2019-01-29T07:31:10.567Z,5.63
2019-01-29T07:33:36.743Z,5.60
2019-01-29T07:36:03.036Z,6.19
2019-01-29T07:38:29.300Z,5.96
2019-01-29T07:40:55.583Z,5.58
2019-01-29T07:43:21.881Z,5.39
2019-01-29T07:45:48.043Z,5.09
2019-01-29T07:48:14.906Z,4.70
2019-01-29T07:50:41.098Z,5.02
2019-01-29T07:53:07.265Z,5.32
2019-01-29T07:55:33.540Z,5.36
2019-01-29T07:57:59.858Z,5.08
2019-01-29T08:00:26.109Z,5.39
2019-01-29T08:02:52.273Z,5.69
2019-01-29T08:05:20.588Z,5.46
2019-01-29T08:07:46.610Z,5.28
2019-01-29T08:10:14.950Z,5.69
2019-01-29T08:12:41.145Z,6.36
2019-01-29T08:15:18.557Z,6.90
2019-01-29T08:17:44.758Z,7.12
2019-01-29T08:20:12.629Z,6.73
2019-01-29T08:22:38.919Z,6.49
2019-01-29T08:25:08.712Z,5.57
2019-01-29T08:27:34.873Z,5.19
2019-01-29T08:30:01.148Z,5.31
2019-01-29T08:32:27.460Z,5.25
2019-01-29T08:34:54.124Z,5.04
2019-01-29T08:37:20.384Z,5.18
2019-01-29T08:39:46.740Z,5.31
2019-01-29T08:42:12.997Z,5.51
2019-01-29T08:44:39.652Z,4.92
2019-01-29T08:47:05.962Z,5.82
2019-01-29T08:49:32.117Z,5.06
2019-01-29T08:51:58.280Z,5.40
2019-01-29T08:54:24.571Z,5.54
2019-01-29T08:56:50.734Z,5.72
2019-01-29T08:59:16.887Z,5.23
2019-01-29T09:01:43.085Z,4.75
2019-01-29T09:04:09.348Z,4.32
2019-01-29T09:06:37.433Z,3.73
2019-01-29T09:09:07.737Z,4.60
2019-01-29T09:11:33.917Z,5.21
2019-01-29T09:14:00.172Z,4.85
2019-01-29T09:16:26.484Z,4.10
2019-01-29T09:18:52.631Z,4.36
2019-01-29T09:21:18.804Z,5.58
2019-01-29T09:23:45.009Z,5.15
2019-01-29T09:26:11.270Z,5.61
2019-01-29T09:28:37.425Z,5.59
2019-01-29T09:31:05.420Z,6.04
2019-01-29T09:33:31.581Z,6.01
2019-01-29T09:35:57.913Z,4.86
2019-01-29T09:38:24.067Z,5.76
2019-01-29T09:40:52.072Z,6.08
2019-01-29T09:43:18.265Z,6.26
2019-01-29T09:45:46.824Z,6.99
2019-01-29T09:48:12.991Z,7.45
2019-01-29T09:50:39.160Z,8.16
2019-01-29T09:53:05.460Z,7.78
2019-01-29T09:55:31.927Z,7.37
2019-01-29T09:57:58.187Z,7.48
2019-01-29T10:00:27.088Z,7.69
2019-01-29T10:02:53.390Z,6.73
2019-01-29T10:05:19.679Z,6.98
2019-01-29T10:07:46.114Z,7.21
2019-01-29T10:10:13.019Z,8.14
2019-01-29T10:12:39.201Z,8.64
2019-01-29T10:15:11.845Z,8.92
2019-01-29T10:17:38.491Z,8.36
2019-01-29T10:20:06.959Z,8.16
2019-01-29T10:22:33.257Z,7.41
2019-01-29T10:24:59.459Z,6.63
2019-01-29T10:27:25.763Z,5.99
2019-01-29T10:29:53.908Z,6.54
2019-01-29T10:32:20.209Z,6.22
2019-01-29T10:34:46.366Z,6.10
2019-01-29T10:37:12.660Z,5.68
2019-01-29T10:39:38.945Z,5.89
2019-01-29T10:42:05.990Z,5.99
2019-01-29T10:44:32.509Z,5.96
2019-01-29T10:46:58.769Z,6.99
2019-01-29T10:49:24.929Z,7.46
2019-01-29T10:51:51.261Z,7.06
2019-01-29T10:54:17.566Z,7.11
2019-01-29T10:56:43.836Z,7.01
2019-01-29T10:59:10.137Z,6.58
2019-01-29T11:01:36.407Z,5.68
2019-01-29T11:04:03.171Z,5.70
2019-01-29T11:06:29.375Z,5.86
2019-01-29T11:08:55.540Z,5.33
2019-01-29T11:11:21.691Z,5.25
2019-01-29T11:13:47.887Z,5.32
2019-01-29T11:16:14.548Z,4.97
2019-01-29T11:18:40.807Z,4.83
2019-01-29T11:21:07.265Z,5.10
2019-01-29T11:23:33.519Z,5.16
2019-01-29T11:25:59.878Z,5.41
2019-01-29T11:28:26.187Z,5.91
2019-01-29T11:30:52.507Z,4.69
2019-01-29T11:33:18.640Z,4.49
2019-01-29T11:35:44.829Z,4.97
2019-01-29T11:38:11.122Z,5.09
2019-01-29T11:40:37.277Z,5.46
2019-01-29T11:43:04.210Z,4.96
2019-01-29T11:45:33.571Z,5.21
2019-01-29T11:47:59.741Z,5.37
2019-01-29T11:50:25.956Z,5.64
2019-01-29T11:52:52.109Z,5.05
2019-01-29T11:55:18.303Z,5.10
2019-01-29T11:57:44.499Z,4.76
2019-01-29T12:00:15.975Z,4.56
2019-01-29T12:02:42.144Z,4.69
2019-01-29T12:05:08.538Z,4.76
2019-01-29T12:07:35.110Z,4.86
2019-01-29T12:10:01.275Z,4.99
2019-01-29T12:12:27.584Z,5.10
2019-01-29T12:14:53.859Z,5.27
2019-01-29T12:17:20.025Z,5.32
2019-01-29T12:19:46.327Z,5.25
2019-01-29T12:22:12.488Z,4.99
2019-01-29T12:24:38.664Z,4.81
2019-01-29T12:27:05.020Z,4.76
2019-01-29T12:29:31.293Z,5.12
2019-01-29T12:31:57.459Z,5.07
2019-01-29T12:34:23.655Z,4.96
2019-01-29T12:36:50.205Z,5.30
2019-01-29T12:39:16.465Z,5.53
2019-01-29T12:41:42.658Z,5.47
2019-01-29T12:44:08.836Z,5.18
2019-01-29T12:46:35.090Z,5.01
2019-01-29T12:49:03.368Z,5.22
2019-01-29T12:51:31.462Z,5.51
2019-01-29T12:53:57.769Z,5.01
2019-01-29T12:56:24.032Z,5.30
2019-01-29T12:58:50.196Z,5.27
2019-01-29T13:01:16.465Z,4.94
2019-01-29T13:03:42.765Z,4.70
2019-01-29T13:06:09.029Z,4.77
2019-01-29T13:08:35.707Z,5.40
2019-01-29T13:11:02.110Z,5.74
2019-01-29T13:13:28.283Z,5.76
2019-01-29T13:15:54.557Z,5.47
2019-01-29T13:18:20.984Z,5.79
2019-01-29T13:20:47.259Z,5.52
2019-01-29T13:23:13.521Z,5.40
2019-01-29T13:25:39.827Z,5.57
2019-01-29T13:28:06.053Z,5.66
2019-01-29T13:30:34.231Z,5.59
2019-01-29T13:33:00.694Z,5.87
2019-01-29T13:35:30.557Z,5.99
2019-01-29T13:37:56.713Z,5.92
2019-01-29T13:40:23.028Z,5.71
2019-01-29T13:42:49.340Z,6.30
2019-01-29T13:45:16.295Z,6.04
2019-01-29T13:47:42.488Z,6.00
2019-01-29T13:50:12.403Z,5.84
2019-01-29T13:52:38.586Z,6.02
2019-01-29T13:55:08.489Z,6.20
2019-01-29T13:57:34.754Z,5.80
2019-01-29T14:00:01.025Z,5.87
2019-01-29T14:02:27.239Z,5.62
2019-01-29T14:04:53.515Z,5.51
2019-01-29T14:07:19.700Z,5.76
2019-01-29T14:09:45.983Z,5.94
2019-01-29T14:12:12.266Z,5.21
2019-01-29T14:14:38.923Z,5.20
2019-01-29T14:17:05.224Z,5.25
2019-01-29T14:19:31.399Z,5.49
2019-01-29T14:21:57.671Z,5.84
2019-01-29T14:24:23.977Z,5.56
2019-01-29T14:26:50.140Z,5.50
2019-01-29T14:29:16.301Z,5.82
2019-01-29T14:31:42.606Z,5.35
2019-01-29T14:34:08.772Z,5.45
2019-01-29T14:36:34.935Z,5.34
2019-01-29T14:39:16.766Z,5.74
2019-01-29T14:41:43.030Z,5.82
2019-01-29T14:44:10.395Z,5.74
2019-01-29T14:46:36.792Z,5.23
2019-01-29T14:49:03.151Z,5.25
2019-01-29T14:51:29.418Z,5.25
2019-01-29T14:53:55.726Z,5.29
2019-01-29T14:56:22.264Z,5.35
2019-01-29T14:58:51.211Z,5.08
2019-01-29T15:01:17.620Z,5.02
2019-01-29T15:03:43.894Z,5.40
2019-01-29T15:06:10.281Z,5.19
2019-01-29T15:08:38.606Z,5.35
2019-01-29T15:11:06.628Z,5.70
2019-01-29T15:13:32.884Z,5.48
2019-01-29T15:16:06.786Z,5.32
2019-01-29T15:18:46.710Z,5.40
2019-01-29T15:21:12.902Z,5.33
2019-01-29T15:23:39.084Z,5.22
2019-01-29T15:26:05.356Z,5.41
2019-01-29T15:28:31.655Z,5.50
2019-01-29T15:30:58.868Z,5.65
2019-01-29T15:33:25.029Z,5.84
2019-01-29T15:35:51.233Z,5.51
2019-01-29T15:38:17.510Z,5.52
2019-01-29T15:40:43.678Z,5.65
2019-01-29T15:43:09.970Z,6.07
2019-01-29T15:45:36.334Z,5.83
2019-01-29T15:48:02.604Z,6.30
2019-01-29T15:50:31.142Z,6.30
2019-01-29T15:52:57.492Z,6.26
2019-01-29T15:55:23.678Z,6.58
2019-01-29T15:57:50.076Z,6.59
2019-01-29T16:00:28.181Z,6.38
2019-01-29T16:02:54.367Z,6.45
2019-01-29T16:05:25.666Z,6.18
2019-01-29T16:07:51.931Z,6.14
2019-01-29T16:10:40.140Z,5.88
2019-01-29T16:13:06.284Z,6.26
2019-01-29T16:15:32.653Z,6.49
2019-01-29T16:17:59.053Z,6.64
2019-01-29T16:20:25.638Z,6.13
2019-01-29T16:22:51.805Z,6.43
2019-01-29T16:25:23.865Z,6.27
2019-01-29T16:27:50.238Z,6.40
2019-01-29T16:30:19.318Z,6.39
2019-01-29T16:32:46.020Z,6.61
2019-01-29T16:35:15.597Z,6.54
2019-01-29T16:37:43.052Z,6.39
2019-01-29T16:40:13.006Z,6.57
2019-01-29T16:42:39.178Z,6.13
2019-01-29T16:45:08.945Z,5.96
2019-01-29T16:47:35.164Z,5.79
2019-01-29T16:50:01.321Z,5.45
2019-01-29T16:52:27.499Z,5.75
2019-01-29T16:54:53.792Z,5.49
2019-01-29T16:57:19.945Z,5.78
2019-01-29T16:59:46.105Z,6.02
2019-01-29T17:02:12.306Z,5.66
2019-01-29T17:04:38.468Z,5.45
2019-01-29T17:07:04.743Z,5.17
2019-01-29T17:09:30.944Z,5.29
2019-01-29T17:11:57.118Z,5.49
2019-01-29T17:14:23.280Z,5.63
2019-01-29T17:16:49.488Z,5.69
2019-01-29T17:19:15.744Z,5.62
2019-01-29T17:21:41.909Z,5.81
2019-01-29T17:24:08.113Z,5.42
2019-01-29T17:26:34.286Z,5.18
2019-01-29T17:29:00.551Z,5.39
2019-01-29T17:31:29.978Z,5.58
2019-01-29T17:33:56.240Z,5.66
2019-01-29T17:36:22.417Z,5.77
2019-01-29T17:38:48.716Z,5.81
2019-01-29T17:41:14.989Z,5.88
2019-01-29T17:43:41.160Z,5.74
2019-01-29T17:46:07.731Z,5.51
2019-01-29T17:48:35.863Z,5.73
2019-01-29T17:51:03.604Z,6.07
2019-01-29T17:53:29.915Z,6.22
2019-01-29T17:55:56.172Z,5.94
2019-01-29T17:58:22.445Z,6.00
2019-01-29T18:00:50.553Z,6.20
2019-01-29T18:03:16.719Z,6.11
2019-01-29T18:05:43.093Z,6.44
2019-01-29T18:08:09.436Z,6.33
2019-01-29T18:10:35.710Z,6.04
2019-01-29T18:13:01.988Z,5.88
2019-01-29T18:15:29.593Z,5.74
2019-01-29T18:17:56.254Z,5.88
2019-01-29T18:20:22.426Z,5.82
2019-01-29T18:22:48.745Z,5.80
2019-01-29T18:25:18.680Z,5.75
2019-01-29T18:27:45.057Z,6.13
2019-01-29T18:30:17.521Z,6.28
2019-01-29T18:32:43.803Z,6.49
2019-01-29T18:35:10.125Z,6.49
2019-01-29T18:37:36.427Z,6.54
2019-01-29T18:40:14.768Z,6.39
2019-01-29T18:42:40.990Z,6.34
2019-01-29T18:45:09.565Z,6.29
2019-01-29T18:47:35.877Z,6.29
2019-01-29T18:50:05.492Z,6.26
2019-01-29T18:52:31.775Z,6.29
2019-01-29T18:54:57.938Z,6.06
2019-01-29T18:57:24.267Z,6.18
2019-01-29T18:59:50.600Z,6.33
2019-01-29T19:02:16.747Z,6.36
2019-01-29T19:04:43.028Z,6.34
2019-01-29T19:07:09.294Z,6.20
2019-01-29T19:09:35.565Z,6.20
2019-01-29T19:12:03.816Z,6.31
2019-01-29T19:14:30.129Z,6.23
2019-01-29T19:16:56.296Z,6.20
2019-01-29T19:19:22.595Z,6.08
2019-01-29T19:21:48.746Z,5.89
2019-01-29T19:24:15.027Z,6.07
2019-01-29T19:26:41.319Z,5.99
2019-01-29T19:29:07.594Z,6.11
2019-01-29T19:31:33.862Z,6.20
2019-01-29T19:34:00.154Z,6.16
2019-01-29T19:36:26.329Z,5.80
2019-01-29T19:38:52.599Z,5.79
2019-01-29T19:41:18.807Z,5.85
2019-01-29T19:43:44.964Z,6.05
2019-01-29T19:46:11.227Z,5.92
2019-01-29T19:48:37.550Z,5.98
2019-01-29T19:51:03.804Z,6.16
2019-01-29T19:53:30.092Z,6.41
2019-01-29T19:55:56.283Z,6.55
2019-01-29T19:58:31.791Z,6.44
2019-01-29T20:00:50.628Z,6.33
2019-01-29T20:03:16.953Z,6.07
2019-01-29T20:05:43.129Z,5.83
2019-01-29T20:08:14.582Z,6.05
2019-01-29T20:10:41.001Z,6.14
2019-01-29T20:13:07.270Z,5.94
2019-01-29T20:15:33.570Z,5.73
2019-01-29T20:17:59.867Z,5.82
2019-01-29T20:20:28.933Z,5.81
2019-01-29T20:22:55.088Z,5.97
2019-01-29T20:25:21.405Z,5.74
2019-01-29T20:27:47.646Z,5.24
2019-01-29T20:30:17.157Z,5.04
2019-01-29T20:32:52.891Z,4.95
2019-01-29T20:35:11.648Z,4.46
2019-01-29T20:37:37.922Z,4.68
2019-01-29T20:40:10.906Z,4.83
2019-01-29T20:42:37.083Z,5.11
2019-01-29T20:45:06.569Z,5.44
2019-01-29T20:47:32.884Z,5.68
2019-01-29T20:49:59.169Z,5.73
2019-01-29T20:52:25.429Z,5.67
2019-01-29T20:54:51.665Z,5.68
2019-01-29T20:57:17.946Z,5.74
2019-01-29T20:59:44.238Z,5.79
2019-01-29T21:02:10.435Z,5.97
2019-01-29T21:04:36.714Z,5.35
2019-01-29T21:07:03.300Z,5.89
2019-01-29T21:09:29.602Z,6.03
2019-01-29T21:11:55.906Z,5.75
2019-01-29T21:14:22.166Z,5.96
2019-01-29T21:16:48.462Z,5.69
2019-01-29T21:19:14.649Z,5.32
2019-01-29T21:21:41.121Z,5.52
2019-01-29T21:24:07.418Z,5.54
2019-01-29T21:26:34.685Z,5.43
2019-01-29T21:29:03.189Z,5.60
2019-01-29T21:31:29.062Z,5.67
2019-01-29T21:33:56.098Z,5.55
2019-01-29T21:36:22.257Z,5.87
2019-01-29T21:38:50.005Z,5.90
2019-01-29T21:41:16.160Z,5.99
2019-01-29T21:43:42.439Z,5.89
2019-01-29T21:46:08.654Z,5.96
2019-01-29T21:48:34.913Z,6.10
2019-01-29T21:51:01.070Z,5.91
2019-01-29T21:53:27.281Z,6.14
2019-01-29T21:55:53.562Z,6.35
2019-01-29T21:58:19.828Z,6.35
2019-01-29T22:00:46.045Z,6.49
2019-01-29T22:03:12.515Z,6.58
2019-01-29T22:05:38.785Z,6.27
2019-01-29T22:08:06.275Z,6.07
2019-01-29T22:10:32.540Z,6.08
2019-01-29T22:12:59.137Z,5.64
2019-01-29T22:15:25.438Z,5.90
2019-01-29T22:17:51.608Z,5.83
2019-01-29T22:20:19.575Z,5.88
2019-01-29T22:22:45.769Z,6.22
2019-01-29T22:25:16.804Z,5.86
2019-01-29T22:27:42.961Z,5.75
2019-01-29T22:30:21.575Z,5.60
2019-01-29T22:32:47.746Z,5.64
2019-01-29T22:35:13.934Z,5.73
2019-01-29T22:37:40.123Z,5.97
2019-01-29T22:40:12.954Z,5.78
2019-01-29T22:42:39.117Z,5.84
2019-01-29T22:45:09.017Z,6.16
2019-01-29T22:47:35.282Z,6.36
2019-01-29T22:50:01.549Z,6.24
2019-01-29T22:52:27.859Z,6.38
2019-01-29T22:54:53.998Z,6.55
2019-01-29T22:57:20.251Z,6.72
2019-01-29T22:59:46.462Z,6.55
2019-01-29T23:02:12.726Z,6.52
2019-01-29T23:04:38.993Z,6.48
2019-01-29T23:07:05.282Z,6.55
2019-01-29T23:09:31.565Z,6.59
2019-01-29T23:11:57.830Z,6.38
2019-01-29T23:14:24.154Z,6.54
2019-01-29T23:16:50.316Z,6.66
2019-01-29T23:19:16.578Z,6.45
2019-01-29T23:21:42.780Z,5.81
2019-01-29T23:24:09.040Z,5.58
2019-01-29T23:26:35.202Z,5.58
2019-01-29T23:29:01.491Z,5.81
2019-01-29T23:31:27.639Z,5.99
2019-01-29T23:33:53.915Z,6.10
2019-01-29T23:36:20.114Z,6.05
2019-01-29T23:38:47.542Z,5.89
2019-01-29T23:41:14.677Z,5.91
2019-01-29T23:43:40.877Z,6.09
2019-01-29T23:46:07.132Z,6.19
2019-01-29T23:48:33.292Z,6.09
2019-01-29T23:50:59.488Z,5.87
2019-01-29T23:53:25.750Z,6.12
2019-01-29T23:55:51.905Z,6.22
2019-01-29T23:58:18.090Z,6.25
